sensor_id;sensor_type;location;lat;lon;timestamp;P1;durP1;ratioP1;P2;durP2;ratioP2
43118;SDS011;28729;49.838;8.650;2023-07-16T00:01:11;8.57;;;4.20;;
43118;SDS011;28729;49.838;8.650;2023-07-16T00:05:13;6.22;;;4.03;;
43118;SDS011;28729;49.838;8.650;2023-07-16T00:09:16;5.97;;;3.13;;
43118;SDS011;28729;49.838;8.650;2023-07-16T00:13:17;8.93;;;3.90;;
43118;SDS011;28729;49.838;8.650;2023-07-16T00:17:19;9.10;;;4.30;;
43118;SDS011;28729;49.838;8.650;2023-07-16T00:21:21;7.03;;;3.92;;
43118;SDS011;28729;49.838;8.650;2023-07-16T00:25:23;9.52;;;4.95;;
43118;SDS011;28729;49.838;8.650;2023-07-16T00:29:24;8.38;;;5.22;;
43118;SDS011;28729;49.838;8.650;2023-07-16T00:33:26;8.23;;;4.10;;
43118;SDS011;28729;49.838;8.650;2023-07-16T00:37:28;8.23;;;4.38;;
43118;SDS011;28729;49.838;8.650;2023-07-16T00:41:30;8.25;;;4.95;;
43118;SDS011;28729;49.838;8.650;2023-07-16T00:45:32;6.43;;;4.03;;
43118;SDS011;28729;49.838;8.650;2023-07-16T00:49:34;5.93;;;3.53;;
43118;SDS011;28729;49.838;8.650;2023-07-16T00:53:36;4.97;;;2.97;;
43118;SDS011;28729;49.838;8.650;2023-07-16T00:57:38;4.90;;;2.90;;
43118;SDS011;28729;49.838;8.650;2023-07-16T01:01:42;8.55;;;3.08;;
43118;SDS011;28729;49.838;8.650;2023-07-16T01:10:17;6.53;;;2.50;;
43118;SDS011;28729;49.838;8.650;2023-07-16T01:14:19;4.60;;;2.13;;
43118;SDS011;28729;49.838;8.650;2023-07-16T01:18:22;3.88;;;2.83;;
43118;SDS011;28729;49.838;8.650;2023-07-16T01:22:27;9.87;;;2.83;;
43118;SDS011;28729;49.838;8.650;2023-07-16T01:31:03;5.85;;;2.40;;
43118;SDS011;28729;49.838;8.650;2023-07-16T01:39:09;4.55;;;2.40;;
43118;SDS011;28729;49.838;8.650;2023-07-16T01:43:11;3.97;;;1.98;;
43118;SDS011;28729;49.838;8.650;2023-07-16T01:51:29;6.30;;;2.55;;
43118;SDS011;28729;49.838;8.650;2023-07-16T01:55:31;4.85;;;2.05;;
43118;SDS011;28729;49.838;8.650;2023-07-16T01:59:33;6.70;;;2.80;;
43118;SDS011;28729;49.838;8.650;2023-07-16T02:03:35;5.80;;;2.38;;
43118;SDS011;28729;49.838;8.650;2023-07-16T02:07:39;7.07;;;2.05;;
43118;SDS011;28729;49.838;8.650;2023-07-16T02:11:40;9.80;;;2.67;;
43118;SDS011;28729;49.838;8.650;2023-07-16T02:15:43;5.57;;;2.47;;
43118;SDS011;28729;49.838;8.650;2023-07-16T02:19:45;6.47;;;2.28;;
43118;SDS011;28729;49.838;8.650;2023-07-16T02:23:47;5.03;;;2.53;;
43118;SDS011;28729;49.838;8.650;2023-07-16T02:27:48;6.82;;;2.85;;
43118;SDS011;28729;49.838;8.650;2023-07-16T02:31:50;7.22;;;2.67;;
43118;SDS011;28729;49.838;8.650;2023-07-16T02:35:52;9.20;;;2.33;;
43118;SDS011;28729;49.838;8.650;2023-07-16T02:39:55;4.72;;;2.47;;
43118;SDS011;28729;49.838;8.650;2023-07-16T02:44:00;5.90;;;2.00;;
43118;SDS011;28729;49.838;8.650;2023-07-16T02:48:04;4.65;;;2.72;;
43118;SDS011;28729;49.838;8.650;2023-07-16T02:52:06;5.45;;;3.10;;
43118;SDS011;28729;49.838;8.650;2023-07-16T02:56:08;3.60;;;2.08;;
43118;SDS011;28729;49.838;8.650;2023-07-16T03:00:10;5.40;;;2.50;;
43118;SDS011;28729;49.838;8.650;2023-07-16T03:04:12;8.57;;;2.70;;
43118;SDS011;28729;49.838;8.650;2023-07-16T03:08:14;10.20;;;3.17;;
43118;SDS011;28729;49.838;8.650;2023-07-16T03:30:57;7.65;;;2.78;;
43118;SDS011;28729;49.838;8.650;2023-07-16T03:35:25;7.00;;;2.75;;
43118;SDS011;28729;49.838;8.650;2023-07-16T03:39:31;5.20;;;2.38;;
43118;SDS011;28729;49.838;8.650;2023-07-16T03:43:43;8.73;;;2.90;;
43118;SDS011;28729;49.838;8.650;2023-07-16T03:47:51;6.50;;;2.10;;
43118;SDS011;28729;49.838;8.650;2023-07-16T03:51:54;4.97;;;2.20;;
43118;SDS011;28729;49.838;8.650;2023-07-16T03:55:55;6.50;;;2.72;;
43118;SDS011;28729;49.838;8.650;2023-07-16T03:59:57;8.23;;;3.03;;
43118;SDS011;28729;49.838;8.650;2023-07-16T04:04:00;7.15;;;3.47;;
43118;SDS011;28729;49.838;8.650;2023-07-16T04:08:02;11.70;;;2.87;;
43118;SDS011;28729;49.838;8.650;2023-07-16T04:12:04;5.60;;;2.72;;
43118;SDS011;28729;49.838;8.650;2023-07-16T04:16:07;6.35;;;2.45;;
43118;SDS011;28729;49.838;8.650;2023-07-16T04:20:08;12.10;;;3.53;;
43118;SDS011;28729;49.838;8.650;2023-07-16T04:24:10;8.07;;;2.65;;
43118;SDS011;28729;49.838;8.650;2023-07-16T04:28:12;6.78;;;2.83;;
43118;SDS011;28729;49.838;8.650;2023-07-16T04:32:14;8.77;;;2.72;;
43118;SDS011;28729;49.838;8.650;2023-07-16T04:36:16;4.75;;;2.70;;
43118;SDS011;28729;49.838;8.650;2023-07-16T04:40:18;8.33;;;2.40;;
43118;SDS011;28729;49.838;8.650;2023-07-16T04:44:20;7.20;;;3.00;;
43118;SDS011;28729;49.838;8.650;2023-07-16T04:48:21;8.45;;;2.83;;
43118;SDS011;28729;49.838;8.650;2023-07-16T04:52:23;6.05;;;2.53;;
43118;SDS011;28729;49.838;8.650;2023-07-16T04:56:25;5.55;;;2.45;;
43118;SDS011;28729;49.838;8.650;2023-07-16T05:00:27;6.78;;;2.75;;
43118;SDS011;28729;49.838;8.650;2023-07-16T05:04:28;5.68;;;2.67;;
43118;SDS011;28729;49.838;8.650;2023-07-16T05:08:30;4.60;;;2.22;;
43118;SDS011;28729;49.838;8.650;2023-07-16T05:12:32;5.82;;;2.13;;
43118;SDS011;28729;49.838;8.650;2023-07-16T05:16:34;6.05;;;2.50;;
43118;SDS011;28729;49.838;8.650;2023-07-16T05:20:36;6.57;;;2.40;;
43118;SDS011;28729;49.838;8.650;2023-07-16T05:24:38;6.40;;;2.30;;
43118;SDS011;28729;49.838;8.650;2023-07-16T05:28:39;11.05;;;2.50;;
43118;SDS011;28729;49.838;8.650;2023-07-16T05:32:41;5.60;;;2.38;;
43118;SDS011;28729;49.838;8.650;2023-07-16T05:36:43;4.70;;;2.40;;
43118;SDS011;28729;49.838;8.650;2023-07-16T05:40:48;4.78;;;2.20;;
43118;SDS011;28729;49.838;8.650;2023-07-16T05:44:51;7.30;;;2.25;;
43118;SDS011;28729;49.838;8.650;2023-07-16T05:48:53;8.07;;;3.00;;
43118;SDS011;28729;49.838;8.650;2023-07-16T05:52:54;5.38;;;1.90;;
43118;SDS011;28729;49.838;8.650;2023-07-16T05:56:56;8.98;;;2.70;;
43118;SDS011;28729;49.838;8.650;2023-07-16T06:00:58;6.13;;;2.23;;
43118;SDS011;28729;49.838;8.650;2023-07-16T06:05:00;6.40;;;2.28;;
43118;SDS011;28729;49.838;8.650;2023-07-16T06:09:02;6.73;;;2.60;;
43118;SDS011;28729;49.838;8.650;2023-07-16T06:13:04;6.77;;;2.47;;
43118;SDS011;28729;49.838;8.650;2023-07-16T06:17:06;6.07;;;2.60;;
43118;SDS011;28729;49.838;8.650;2023-07-16T06:21:07;5.32;;;2.42;;
43118;SDS011;28729;49.838;8.650;2023-07-16T06:25:09;7.80;;;2.30;;
43118;SDS011;28729;49.838;8.650;2023-07-16T06:33:14;10.55;;;3.00;;
43118;SDS011;28729;49.838;8.650;2023-07-16T06:37:16;9.73;;;2.58;;
43118;SDS011;28729;49.838;8.650;2023-07-16T06:41:17;5.70;;;2.13;;
43118;SDS011;28729;49.838;8.650;2023-07-16T06:45:19;5.10;;;2.73;;
43118;SDS011;28729;49.838;8.650;2023-07-16T06:49:21;13.93;;;2.83;;
43118;SDS011;28729;49.838;8.650;2023-07-16T06:53:23;5.93;;;2.25;;
43118;SDS011;28729;49.838;8.650;2023-07-16T06:57:25;10.20;;;3.53;;
43118;SDS011;28729;49.838;8.650;2023-07-16T07:01:27;7.53;;;2.50;;
43118;SDS011;28729;49.838;8.650;2023-07-16T07:05:29;6.47;;;2.50;;
43118;SDS011;28729;49.838;8.650;2023-07-16T07:09:31;8.30;;;3.75;;
43118;SDS011;28729;49.838;8.650;2023-07-16T07:13:33;6.57;;;2.75;;
43118;SDS011;28729;49.838;8.650;2023-07-16T07:17:34;9.52;;;2.22;;
43118;SDS011;28729;49.838;8.650;2023-07-16T07:21:37;6.18;;;2.70;;
43118;SDS011;28729;49.838;8.650;2023-07-16T07:25:38;7.55;;;3.08;;
43118;SDS011;28729;49.838;8.650;2023-07-16T07:29:40;10.67;;;3.13;;
43118;SDS011;28729;49.838;8.650;2023-07-16T07:33:42;8.30;;;3.53;;
43118;SDS011;28729;49.838;8.650;2023-07-16T07:37:44;9.43;;;3.10;;
43118;SDS011;28729;49.838;8.650;2023-07-16T07:41:45;12.77;;;3.03;;
43118;SDS011;28729;49.838;8.650;2023-07-16T07:45:47;7.03;;;3.10;;
43118;SDS011;28729;49.838;8.650;2023-07-16T07:49:50;10.67;;;2.53;;
43118;SDS011;28729;49.838;8.650;2023-07-16T07:53:53;4.63;;;2.83;;
43118;SDS011;28729;49.838;8.650;2023-07-16T07:57:55;6.10;;;3.20;;
43118;SDS011;28729;49.838;8.650;2023-07-16T08:01:57;11.80;;;3.03;;
43118;SDS011;28729;49.838;8.650;2023-07-16T08:05:59;10.38;;;3.05;;
43118;SDS011;28729;49.838;8.650;2023-07-16T08:10:01;5.87;;;2.67;;
43118;SDS011;28729;49.838;8.650;2023-07-16T08:14:03;9.17;;;2.80;;
43118;SDS011;28729;49.838;8.650;2023-07-16T08:18:05;10.07;;;3.00;;
43118;SDS011;28729;49.838;8.650;2023-07-16T08:22:07;8.80;;;2.90;;
43118;SDS011;28729;49.838;8.650;2023-07-16T08:26:08;7.47;;;2.67;;
43118;SDS011;28729;49.838;8.650;2023-07-16T08:30:11;8.65;;;2.35;;
43118;SDS011;28729;49.838;8.650;2023-07-16T08:34:13;7.87;;;2.27;;
43118;SDS011;28729;49.838;8.650;2023-07-16T08:38:15;7.13;;;2.77;;
43118;SDS011;28729;49.838;8.650;2023-07-16T08:42:16;10.77;;;3.00;;
43118;SDS011;28729;49.838;8.650;2023-07-16T08:46:18;7.25;;;3.00;;
43118;SDS011;28729;49.838;8.650;2023-07-16T08:50:21;7.75;;;2.67;;
43118;SDS011;28729;49.838;8.650;2023-07-16T08:54:25;9.27;;;2.65;;
43118;SDS011;28729;49.838;8.650;2023-07-16T08:58:27;8.30;;;2.93;;
43118;SDS011;28729;49.838;8.650;2023-07-16T09:02:30;10.48;;;3.13;;
43118;SDS011;28729;49.838;8.650;2023-07-16T09:06:33;8.15;;;2.60;;
43118;SDS011;28729;49.838;8.650;2023-07-16T09:10:35;7.05;;;2.72;;
43118;SDS011;28729;49.838;8.650;2023-07-16T09:14:40;8.25;;;2.63;;
43118;SDS011;28729;49.838;8.650;2023-07-16T09:18:43;7.90;;;2.90;;
43118;SDS011;28729;49.838;8.650;2023-07-16T09:22:46;6.10;;;2.75;;
43118;SDS011;28729;49.838;8.650;2023-07-16T09:26:49;7.38;;;2.70;;
43118;SDS011;28729;49.838;8.650;2023-07-16T09:30:52;8.20;;;2.75;;
43118;SDS011;28729;49.838;8.650;2023-07-16T09:34:54;8.10;;;2.45;;
43118;SDS011;28729;49.838;8.650;2023-07-16T09:38:56;11.90;;;3.20;;
43118;SDS011;28729;49.838;8.650;2023-07-16T09:43:00;7.78;;;2.20;;
43118;SDS011;28729;49.838;8.650;2023-07-16T09:47:03;7.03;;;2.50;;
43118;SDS011;28729;49.838;8.650;2023-07-16T09:51:05;4.53;;;2.28;;
43118;SDS011;28729;49.838;8.650;2023-07-16T09:55:12;7.43;;;2.67;;
43118;SDS011;28729;49.838;8.650;2023-07-16T09:59:16;5.88;;;2.60;;
43118;SDS011;28729;49.838;8.650;2023-07-16T10:03:21;5.72;;;2.20;;
43118;SDS011;28729;49.838;8.650;2023-07-16T10:07:23;4.90;;;2.22;;
43118;SDS011;28729;49.838;8.650;2023-07-16T10:11:27;4.68;;;2.22;;
43118;SDS011;28729;49.838;8.650;2023-07-16T10:15:38;7.03;;;2.45;;
43118;SDS011;28729;49.838;8.650;2023-07-16T10:23:59;5.40;;;1.98;;
43118;SDS011;28729;49.838;8.650;2023-07-16T10:28:01;6.88;;;2.05;;
43118;SDS011;28729;49.838;8.650;2023-07-16T10:32:03;6.35;;;2.25;;
43118;SDS011;28729;49.838;8.650;2023-07-16T10:36:09;8.02;;;2.35;;
43118;SDS011;28729;49.838;8.650;2023-07-16T10:40:11;3.63;;;1.55;;
43118;SDS011;28729;49.838;8.650;2023-07-16T10:44:14;5.43;;;2.28;;
43118;SDS011;28729;49.838;8.650;2023-07-16T10:48:17;6.00;;;1.92;;
43118;SDS011;28729;49.838;8.650;2023-07-16T10:52:20;5.88;;;2.80;;
43118;SDS011;28729;49.838;8.650;2023-07-16T10:56:22;5.53;;;1.88;;
43118;SDS011;28729;49.838;8.650;2023-07-16T11:00:24;4.18;;;2.00;;
43118;SDS011;28729;49.838;8.650;2023-07-16T11:04:26;6.80;;;2.17;;
43118;SDS011;28729;49.838;8.650;2023-07-16T11:08:35;5.45;;;2.20;;
43118;SDS011;28729;49.838;8.650;2023-07-16T11:12:37;5.18;;;1.92;;
43118;SDS011;28729;49.838;8.650;2023-07-16T11:16:39;7.43;;;2.20;;
43118;SDS011;28729;49.838;8.650;2023-07-16T11:20:41;6.78;;;2.13;;
43118;SDS011;28729;49.838;8.650;2023-07-16T11:24:44;6.30;;;2.33;;
43118;SDS011;28729;49.838;8.650;2023-07-16T11:28:49;2.53;;;1.55;;
43118;SDS011;28729;49.838;8.650;2023-07-16T11:32:52;5.25;;;2.03;;
43118;SDS011;28729;49.838;8.650;2023-07-16T11:36:55;5.57;;;2.20;;
43118;SDS011;28729;49.838;8.650;2023-07-16T11:40:59;9.27;;;2.47;;
43118;SDS011;28729;49.838;8.650;2023-07-16T11:45:02;4.90;;;2.00;;
43118;SDS011;28729;49.838;8.650;2023-07-16T11:49:05;7.32;;;2.28;;
43118;SDS011;28729;49.838;8.650;2023-07-16T11:53:07;3.67;;;1.60;;
43118;SDS011;28729;49.838;8.650;2023-07-16T11:57:09;4.82;;;2.03;;
43118;SDS011;28729;49.838;8.650;2023-07-16T12:01:11;7.72;;;2.13;;
43118;SDS011;28729;49.838;8.650;2023-07-16T12:05:13;5.15;;;2.20;;
43118;SDS011;28729;49.838;8.650;2023-07-16T12:09:16;7.50;;;2.60;;
43118;SDS011;28729;49.838;8.650;2023-07-16T12:13:18;4.60;;;2.05;;
43118;SDS011;28729;49.838;8.650;2023-07-16T12:17:20;6.40;;;2.15;;
43118;SDS011;28729;49.838;8.650;2023-07-16T12:21:22;4.43;;;2.08;;
43118;SDS011;28729;49.838;8.650;2023-07-16T12:29:26;4.57;;;2.53;;
43118;SDS011;28729;49.838;8.650;2023-07-16T12:33:27;8.80;;;2.42;;
43118;SDS011;28729;49.838;8.650;2023-07-16T12:37:29;5.28;;;2.20;;
43118;SDS011;28729;49.838;8.650;2023-07-16T12:41:36;6.35;;;2.60;;
43118;SDS011;28729;49.838;8.650;2023-07-16T12:49:39;4.35;;;2.75;;
43118;SDS011;28729;49.838;8.650;2023-07-16T12:53:41;5.03;;;2.35;;
43118;SDS011;28729;49.838;8.650;2023-07-16T12:57:45;6.50;;;2.17;;
43118;SDS011;28729;49.838;8.650;2023-07-16T13:05:48;6.80;;;3.05;;
43118;SDS011;28729;49.838;8.650;2023-07-16T13:09:50;8.07;;;2.83;;
43118;SDS011;28729;49.838;8.650;2023-07-16T13:14:08;5.70;;;2.35;;
43118;SDS011;28729;49.838;8.650;2023-07-16T13:18:10;4.95;;;2.67;;
43118;SDS011;28729;49.838;8.650;2023-07-16T13:22:13;5.60;;;2.83;;
43118;SDS011;28729;49.838;8.650;2023-07-16T13:26:15;5.47;;;2.92;;
43118;SDS011;28729;49.838;8.650;2023-07-16T13:30:18;6.38;;;2.90;;
43118;SDS011;28729;49.838;8.650;2023-07-16T13:34:20;5.72;;;3.05;;
43118;SDS011;28729;49.838;8.650;2023-07-16T13:38:21;5.00;;;2.80;;
43118;SDS011;28729;49.838;8.650;2023-07-16T13:42:23;6.35;;;3.35;;
43118;SDS011;28729;49.838;8.650;2023-07-16T13:46:25;6.25;;;3.10;;
43118;SDS011;28729;49.838;8.650;2023-07-16T13:50:27;5.55;;;3.38;;
43118;SDS011;28729;49.838;8.650;2023-07-16T13:54:29;8.23;;;3.78;;
43118;SDS011;28729;49.838;8.650;2023-07-16T13:58:31;6.30;;;2.63;;
43118;SDS011;28729;49.838;8.650;2023-07-16T14:02:34;7.00;;;3.75;;
43118;SDS011;28729;49.838;8.650;2023-07-16T14:06:37;5.80;;;3.05;;
43118;SDS011;28729;49.838;8.650;2023-07-16T14:10:39;6.82;;;3.30;;
43118;SDS011;28729;49.838;8.650;2023-07-16T14:14:41;7.22;;;3.72;;
43118;SDS011;28729;49.838;8.650;2023-07-16T14:18:42;5.22;;;3.50;;
43118;SDS011;28729;49.838;8.650;2023-07-16T14:22:44;10.00;;;3.45;;
43118;SDS011;28729;49.838;8.650;2023-07-16T14:26:46;6.28;;;3.63;;
43118;SDS011;28729;49.838;8.650;2023-07-16T14:30:48;6.57;;;3.28;;
43118;SDS011;28729;49.838;8.650;2023-07-16T14:34:50;5.85;;;3.95;;
43118;SDS011;28729;49.838;8.650;2023-07-16T14:38:52;11.10;;;3.72;;
43118;SDS011;28729;49.838;8.650;2023-07-16T14:42:54;6.22;;;3.70;;
43118;SDS011;28729;49.838;8.650;2023-07-16T14:46:56;6.90;;;3.75;;
43118;SDS011;28729;49.838;8.650;2023-07-16T14:50:58;5.35;;;3.90;;
43118;SDS011;28729;49.838;8.650;2023-07-16T14:55:00;7.45;;;3.85;;
43118;SDS011;28729;49.838;8.650;2023-07-16T14:59:02;8.65;;;4.47;;
43118;SDS011;28729;49.838;8.650;2023-07-16T15:03:03;7.30;;;4.57;;
43118;SDS011;28729;49.838;8.650;2023-07-16T15:07:07;6.30;;;4.15;;
43118;SDS011;28729;49.838;8.650;2023-07-16T15:11:10;9.30;;;3.80;;
43118;SDS011;28729;49.838;8.650;2023-07-16T15:15:12;6.15;;;3.60;;
43118;SDS011;28729;49.838;8.650;2023-07-16T15:19:15;6.68;;;3.85;;
43118;SDS011;28729;49.838;8.650;2023-07-16T15:23:18;9.13;;;4.30;;
43118;SDS011;28729;49.838;8.650;2023-07-16T15:27:20;6.80;;;3.78;;
43118;SDS011;28729;49.838;8.650;2023-07-16T15:31:22;5.13;;;3.70;;
43118;SDS011;28729;49.838;8.650;2023-07-16T15:35:31;6.35;;;3.72;;
43118;SDS011;28729;49.838;8.650;2023-07-16T15:39:33;8.80;;;3.75;;
43118;SDS011;28729;49.838;8.650;2023-07-16T15:43:35;7.40;;;3.80;;
43118;SDS011;28729;49.838;8.650;2023-07-16T15:47:37;8.77;;;4.32;;
43118;SDS011;28729;49.838;8.650;2023-07-16T15:51:39;7.32;;;3.95;;
43118;SDS011;28729;49.838;8.650;2023-07-16T15:55:42;7.55;;;3.58;;
43118;SDS011;28729;49.838;8.650;2023-07-16T15:59:45;8.65;;;4.03;;
43118;SDS011;28729;49.838;8.650;2023-07-16T16:03:46;6.60;;;3.80;;
43118;SDS011;28729;49.838;8.650;2023-07-16T16:12:19;8.35;;;3.72;;
43118;SDS011;28729;49.838;8.650;2023-07-16T16:16:22;8.25;;;3.78;;
43118;SDS011;28729;49.838;8.650;2023-07-16T16:20:25;6.50;;;3.70;;
43118;SDS011;28729;49.838;8.650;2023-07-16T16:24:26;6.20;;;3.35;;
43118;SDS011;28729;49.838;8.650;2023-07-16T16:28:28;7.85;;;3.65;;
43118;SDS011;28729;49.838;8.650;2023-07-16T16:32:30;5.18;;;3.15;;
43118;SDS011;28729;49.838;8.650;2023-07-16T16:36:32;7.97;;;3.60;;
43118;SDS011;28729;49.838;8.650;2023-07-16T16:40:34;7.47;;;4.40;;
43118;SDS011;28729;49.838;8.650;2023-07-16T16:44:36;6.28;;;3.75;;
43118;SDS011;28729;49.838;8.650;2023-07-16T16:48:39;7.00;;;3.63;;
43118;SDS011;28729;49.838;8.650;2023-07-16T16:52:43;7.70;;;3.50;;
43118;SDS011;28729;49.838;8.650;2023-07-16T16:56:45;6.60;;;3.72;;
43118;SDS011;28729;49.838;8.650;2023-07-16T17:00:48;7.80;;;3.85;;
43118;SDS011;28729;49.838;8.650;2023-07-16T17:04:53;10.68;;;3.50;;
43118;SDS011;28729;49.838;8.650;2023-07-16T17:08:57;7.07;;;3.70;;
43118;SDS011;28729;49.838;8.650;2023-07-16T17:12:59;9.05;;;3.92;;
43118;SDS011;28729;49.838;8.650;2023-07-16T17:17:01;6.83;;;3.93;;
43118;SDS011;28729;49.838;8.650;2023-07-16T17:21:04;7.20;;;3.88;;
43118;SDS011;28729;49.838;8.650;2023-07-16T17:25:06;7.90;;;3.65;;
43118;SDS011;28729;49.838;8.650;2023-07-16T17:33:10;8.20;;;3.88;;
43118;SDS011;28729;49.838;8.650;2023-07-16T17:37:13;6.28;;;3.60;;
43118;SDS011;28729;49.838;8.650;2023-07-16T17:41:17;6.22;;;3.60;;
43118;SDS011;28729;49.838;8.650;2023-07-16T17:45:19;8.85;;;3.95;;
43118;SDS011;28729;49.838;8.650;2023-07-16T17:49:21;7.90;;;3.55;;
43118;SDS011;28729;49.838;8.650;2023-07-16T17:53:23;12.38;;;4.18;;
43118;SDS011;28729;49.838;8.650;2023-07-16T17:57:26;8.32;;;3.35;;
43118;SDS011;28729;49.838;8.650;2023-07-16T18:01:28;9.95;;;4.00;;
43118;SDS011;28729;49.838;8.650;2023-07-16T18:05:33;5.35;;;3.70;;
43118;SDS011;28729;49.838;8.650;2023-07-16T18:09:38;7.78;;;3.80;;
43118;SDS011;28729;49.838;8.650;2023-07-16T18:13:40;7.60;;;3.87;;
43118;SDS011;28729;49.838;8.650;2023-07-16T18:17:43;9.07;;;4.50;;
43118;SDS011;28729;49.838;8.650;2023-07-16T18:21:48;7.32;;;3.42;;
43118;SDS011;28729;49.838;8.650;2023-07-16T18:26:03;6.63;;;3.60;;
43118;SDS011;28729;49.838;8.650;2023-07-16T18:30:06;8.38;;;4.35;;
43118;SDS011;28729;49.838;8.650;2023-07-16T18:34:08;8.73;;;3.55;;
43118;SDS011;28729;49.838;8.650;2023-07-16T18:38:10;7.27;;;3.40;;
43118;SDS011;28729;49.838;8.650;2023-07-16T18:42:11;6.60;;;3.60;;
43118;SDS011;28729;49.838;8.650;2023-07-16T18:46:18;10.50;;;3.65;;
43118;SDS011;28729;49.838;8.650;2023-07-16T18:50:20;7.78;;;3.80;;
43118;SDS011;28729;49.838;8.650;2023-07-16T18:54:22;13.30;;;3.47;;
43118;SDS011;28729;49.838;8.650;2023-07-16T18:58:24;9.73;;;3.75;;
43118;SDS011;28729;49.838;8.650;2023-07-16T19:02:26;6.37;;;3.93;;
43118;SDS011;28729;49.838;8.650;2023-07-16T19:10:30;7.75;;;4.32;;
43118;SDS011;28729;49.838;8.650;2023-07-16T19:14:33;8.38;;;4.85;;
43118;SDS011;28729;49.838;8.650;2023-07-16T19:18:35;7.72;;;3.83;;
43118;SDS011;28729;49.838;8.650;2023-07-16T19:22:37;7.55;;;3.92;;
43118;SDS011;28729;49.838;8.650;2023-07-16T19:26:39;8.80;;;4.10;;
43118;SDS011;28729;49.838;8.650;2023-07-16T19:30:41;6.83;;;3.53;;
43118;SDS011;28729;49.838;8.650;2023-07-16T19:34:43;8.80;;;4.00;;
43118;SDS011;28729;49.838;8.650;2023-07-16T19:38:46;10.68;;;4.32;;
43118;SDS011;28729;49.838;8.650;2023-07-16T19:42:48;10.00;;;4.03;;
43118;SDS011;28729;49.838;8.650;2023-07-16T19:46:50;9.37;;;4.10;;
43118;SDS011;28729;49.838;8.650;2023-07-16T19:50:52;8.95;;;3.65;;
43118;SDS011;28729;49.838;8.650;2023-07-16T19:54:54;8.13;;;3.50;;
43118;SDS011;28729;49.838;8.650;2023-07-16T19:58:55;7.07;;;3.22;;
43118;SDS011;28729;49.838;8.650;2023-07-16T20:02:57;10.93;;;4.53;;
43118;SDS011;28729;49.838;8.650;2023-07-16T20:06:59;11.37;;;4.00;;
43118;SDS011;28729;49.838;8.650;2023-07-16T20:11:11;8.93;;;4.13;;
43118;SDS011;28729;49.838;8.650;2023-07-16T20:15:13;7.28;;;3.50;;
43118;SDS011;28729;49.838;8.650;2023-07-16T20:19:15;6.70;;;3.17;;
43118;SDS011;28729;49.838;8.650;2023-07-16T20:23:17;9.20;;;3.88;;
43118;SDS011;28729;49.838;8.650;2023-07-16T20:27:19;7.53;;;3.63;;
43118;SDS011;28729;49.838;8.650;2023-07-16T20:31:21;10.80;;;3.47;;
43118;SDS011;28729;49.838;8.650;2023-07-16T20:35:23;10.23;;;4.10;;
43118;SDS011;28729;49.838;8.650;2023-07-16T20:39:24;8.10;;;3.58;;
43118;SDS011;28729;49.838;8.650;2023-07-16T20:43:27;8.00;;;3.50;;
43118;SDS011;28729;49.838;8.650;2023-07-16T20:47:28;10.50;;;3.80;;
43118;SDS011;28729;49.838;8.650;2023-07-16T20:51:30;8.20;;;3.60;;
43118;SDS011;28729;49.838;8.650;2023-07-16T20:55:32;13.30;;;3.92;;
43118;SDS011;28729;49.838;8.650;2023-07-16T20:59:34;11.35;;;3.47;;
43118;SDS011;28729;49.838;8.650;2023-07-16T21:03:36;8.80;;;3.63;;
43118;SDS011;28729;49.838;8.650;2023-07-16T21:07:40;10.23;;;4.40;;
43118;SDS011;28729;49.838;8.650;2023-07-16T21:11:46;5.75;;;3.17;;
43118;SDS011;28729;49.838;8.650;2023-07-16T21:15:48;9.70;;;4.17;;
43118;SDS011;28729;49.838;8.650;2023-07-16T21:19:50;7.90;;;3.33;;
43118;SDS011;28729;49.838;8.650;2023-07-16T21:23:54;6.40;;;3.45;;
43118;SDS011;28729;49.838;8.650;2023-07-16T21:27:57;7.85;;;3.55;;
43118;SDS011;28729;49.838;8.650;2023-07-16T21:32:01;8.38;;;3.55;;
43118;SDS011;28729;49.838;8.650;2023-07-16T21:36:04;9.70;;;3.30;;
43118;SDS011;28729;49.838;8.650;2023-07-16T21:40:06;8.73;;;3.80;;
43118;SDS011;28729;49.838;8.650;2023-07-16T21:44:08;9.63;;;3.67;;
43118;SDS011;28729;49.838;8.650;2023-07-16T21:48:10;9.57;;;4.10;;
43118;SDS011;28729;49.838;8.650;2023-07-16T21:52:12;8.73;;;3.37;;
43118;SDS011;28729;49.838;8.650;2023-07-16T21:56:14;8.60;;;3.30;;
43118;SDS011;28729;49.838;8.650;2023-07-16T22:00:18;7.63;;;3.60;;
43118;SDS011;28729;49.838;8.650;2023-07-16T22:04:24;7.13;;;3.42;;
43118;SDS011;28729;49.838;8.650;2023-07-16T22:08:26;9.52;;;3.72;;
43118;SDS011;28729;49.838;8.650;2023-07-16T22:12:28;7.23;;;3.40;;
43118;SDS011;28729;49.838;8.650;2023-07-16T22:16:31;8.75;;;3.92;;
43118;SDS011;28729;49.838;8.650;2023-07-16T22:20:34;6.78;;;3.30;;
43118;SDS011;28729;49.838;8.650;2023-07-16T22:24:36;9.30;;;3.42;;
43118;SDS011;28729;49.838;8.650;2023-07-16T22:28:38;10.52;;;3.30;;
43118;SDS011;28729;49.838;8.650;2023-07-16T22:32:40;5.97;;;3.33;;
43118;SDS011;28729;49.838;8.650;2023-07-16T22:36:43;8.60;;;3.70;;
43118;SDS011;28729;49.838;8.650;2023-07-16T22:40:46;6.03;;;3.38;;
43118;SDS011;28729;49.838;8.650;2023-07-16T22:44:47;10.15;;;3.47;;
43118;SDS011;28729;49.838;8.650;2023-07-16T22:48:49;7.20;;;3.10;;
43118;SDS011;28729;49.838;8.650;2023-07-16T22:52:54;7.22;;;3.28;;
43118;SDS011;28729;49.838;8.650;2023-07-16T22:56:56;7.13;;;2.88;;
43118;SDS011;28729;49.838;8.650;2023-07-16T23:00:58;5.80;;;3.20;;
43118;SDS011;28729;49.838;8.650;2023-07-16T23:04:59;7.90;;;3.28;;
43118;SDS011;28729;49.838;8.650;2023-07-16T23:09:01;11.23;;;4.27;;
43118;SDS011;28729;49.838;8.650;2023-07-16T23:13:04;6.50;;;3.23;;
43118;SDS011;28729;49.838;8.650;2023-07-16T23:17:05;10.13;;;3.20;;
43118;SDS011;28729;49.838;8.650;2023-07-16T23:21:07;10.68;;;3.70;;
43118;SDS011;28729;49.838;8.650;2023-07-16T23:25:09;8.63;;;3.17;;
43118;SDS011;28729;49.838;8.650;2023-07-16T23:29:11;7.47;;;3.47;;
43118;SDS011;28729;49.838;8.650;2023-07-16T23:33:13;5.07;;;3.03;;
43118;SDS011;28729;49.838;8.650;2023-07-16T23:37:15;9.88;;;3.17;;
43118;SDS011;28729;49.838;8.650;2023-07-16T23:41:17;6.10;;;2.67;;
43118;SDS011;28729;49.838;8.650;2023-07-16T23:45:20;8.77;;;3.03;;
43118;SDS011;28729;49.838;8.650;2023-07-16T23:49:22;8.13;;;3.08;;
43118;SDS011;28729;49.838;8.650;2023-07-16T23:53:24;10.70;;;3.10;;
43118;SDS011;28729;49.838;8.650;2023-07-16T23:57:26;11.35;;;3.40;;
